Search for airport 
image banner adimage banner adimage banner ad
image banner ad

8G2 - Corry-Lawrence

Located in Corry, United States

ICAO - 8G2, IATA -

Data provided by Airmate  

General information

Coordinates: N41°54'27" W79°38'28"
Elevation is 1766 feet MSL.
Magnetic variation is -10° East
View others Airports in Pennsylvania

Operational data

Special qualification required
Current time UTC:
Current local time:
Weather at : KJHW - Chautauqua County/Jamestown ( 42 km )
METAR: KJHW 091556Z AUTO 17013KT 10SM BKN048 OVC055 07/02 A2996 RMK AO2 SLP162 T00670017
TAF: KJHW 091501Z 0915/1012 18009KT P6SM BKN025 FM091700 14006KT 5SM -RA BR OVC012 FM092100 07010KT 2SM RA BR OVC003 FM100400 36008KT P6SM OVC003
View NOTAMs / SUP AIP / TFR affecting this airport [VIEW]
Communications frequencies: [VIEW]

Runways:

RWY identifierQFULength (ft)Width (ft)SurfaceLDA (ft)
14133°410175ASPH
32313°410175ASPH

Airport contact information

Address: Corry United States

Satellite view of 8G2